createdAt,value
2019-02-09T00:01:00.618Z,3.40
2019-02-09T00:03:29.172Z,3.87
2019-02-09T00:05:57.824Z,4.67
2019-02-09T00:08:26.500Z,3.60
2019-02-09T00:10:55.072Z,3.27
2019-02-09T00:13:24.181Z,3.03
2019-02-09T00:15:52.747Z,3.73
2019-02-09T00:18:21.417Z,3.70
2019-02-09T00:20:50.205Z,4.13
2019-02-09T00:23:18.845Z,3.73
2019-02-09T00:25:47.805Z,3.70
2019-02-09T00:28:16.387Z,3.90
2019-02-09T00:30:44.959Z,3.73
2019-02-09T00:33:13.522Z,3.40
2019-02-09T00:35:42.077Z,3.80
2019-02-09T00:38:10.709Z,5.13
2019-02-09T00:40:39.330Z,4.13
2019-02-09T00:43:07.895Z,3.83
2019-02-09T00:45:36.528Z,3.20
2019-02-09T00:48:05.181Z,4.20
2019-02-09T00:50:33.823Z,3.37
2019-02-09T00:53:02.453Z,3.87
2019-02-09T00:55:31.086Z,3.43
2019-02-09T00:57:59.724Z,3.67
2019-02-09T01:00:28.473Z,3.50
2019-02-09T01:02:57.114Z,3.33
2019-02-09T01:05:28.371Z,3.57
2019-02-09T01:07:56.933Z,3.63
2019-02-09T01:10:26.485Z,4.10
2019-02-09T01:12:55.071Z,3.70
2019-02-09T01:15:23.704Z,4.03
2019-02-09T01:17:52.336Z,3.30
2019-02-09T01:20:22.767Z,3.40
2019-02-09T01:22:51.595Z,3.50
2019-02-09T01:25:20.456Z,3.77
2019-02-09T01:27:49.046Z,3.13
2019-02-09T01:30:19.608Z,3.40
2019-02-09T01:32:48.174Z,3.53
2019-02-09T01:35:16.937Z,3.00
2019-02-09T01:37:45.877Z,2.93
2019-02-09T01:40:16.925Z,3.13
2019-02-09T01:42:45.574Z,3.53
2019-02-09T01:45:17.559Z,2.90
2019-02-09T01:47:46.141Z,2.93
2019-02-09T01:50:15.691Z,2.23
2019-02-09T01:52:44.308Z,2.70
2019-02-09T01:55:13.115Z,2.37
2019-02-09T01:57:41.825Z,2.33
2019-02-09T02:00:13.288Z,1.90
2019-02-09T02:02:41.908Z,2.20
2019-02-09T02:05:10.910Z,2.80
2019-02-09T02:07:39.468Z,2.33
2019-02-09T02:10:11.253Z,2.20
2019-02-09T02:12:39.838Z,2.47
2019-02-09T02:15:11.528Z,1.73
2019-02-09T02:17:40.374Z,2.50
2019-02-09T02:20:12.501Z,2.00
2019-02-09T02:22:41.162Z,1.80
2019-02-09T02:25:09.791Z,1.80
2019-02-09T02:27:38.375Z,2.03
2019-02-09T02:30:08.829Z,2.10
2019-02-09T02:32:37.729Z,1.73
2019-02-09T02:35:07.003Z,1.53
2019-02-09T02:37:35.818Z,2.10
2019-02-09T02:40:05.523Z,2.00
2019-02-09T02:42:34.101Z,1.73
2019-02-09T02:45:02.893Z,1.77
2019-02-09T02:47:31.807Z,1.90
2019-02-09T02:50:00.353Z,1.90
2019-02-09T02:52:29.162Z,2.77
2019-02-09T02:54:57.784Z,2.20
2019-02-09T02:57:26.367Z,2.40
2019-02-09T02:59:55.157Z,2.30
2019-02-09T03:02:23.710Z,2.53
2019-02-09T03:04:52.375Z,2.07
2019-02-09T03:07:20.929Z,2.17
2019-02-09T03:09:49.503Z,2.03
2019-02-09T03:12:18.057Z,1.80
2019-02-09T03:14:46.607Z,1.60
2019-02-09T03:17:15.203Z,1.50
2019-02-09T03:19:43.748Z,1.60
2019-02-09T03:22:12.330Z,1.53
2019-02-09T03:24:40.912Z,1.60
2019-02-09T03:27:09.489Z,1.43
2019-02-09T03:29:38.057Z,1.30
2019-02-09T03:32:06.896Z,1.40
2019-02-09T03:34:35.711Z,1.20
2019-02-09T03:37:04.283Z,1.23
2019-02-09T03:39:32.857Z,1.30
2019-02-09T03:42:01.485Z,1.10
2019-02-09T03:44:30.294Z,1.20
2019-02-09T03:46:58.879Z,1.13
2019-02-09T03:49:27.927Z,1.20
2019-02-09T03:51:56.503Z,1.10
2019-02-09T03:54:25.306Z,1.33
2019-02-09T03:56:54.140Z,1.50
2019-02-09T03:59:22.718Z,1.40
2019-02-09T04:01:51.285Z,1.50
2019-02-09T04:04:19.927Z,1.20
2019-02-09T04:06:48.485Z,1.17
2019-02-09T04:09:17.064Z,1.40
2019-02-09T04:11:45.935Z,1.27
2019-02-09T04:14:15.091Z,1.30
2019-02-09T04:16:43.891Z,1.30
2019-02-09T04:19:12.466Z,1.30
2019-02-09T04:21:41.025Z,1.33
2019-02-09T04:24:09.603Z,1.30
2019-02-09T04:26:38.178Z,1.27
2019-02-09T04:29:06.728Z,1.73
2019-02-09T04:31:35.367Z,1.33
2019-02-09T04:34:04.061Z,1.50
2019-02-09T04:36:32.634Z,1.20
2019-02-09T04:39:01.206Z,1.30
2019-02-09T04:41:29.768Z,1.00
2019-02-09T04:43:58.328Z,1.40
2019-02-09T04:46:26.907Z,1.00
2019-02-09T04:48:55.467Z,1.30
2019-02-09T04:51:24.142Z,1.20
2019-02-09T04:53:52.689Z,1.40
2019-02-09T04:56:21.259Z,1.20
2019-02-09T04:58:49.825Z,0.87
2019-02-09T05:01:18.627Z,1.40
2019-02-09T05:03:47.185Z,1.00
2019-02-09T05:06:15.825Z,0.97
2019-02-09T05:08:44.387Z,1.13
2019-02-09T05:11:12.937Z,1.23
2019-02-09T05:13:41.518Z,1.77
2019-02-09T05:16:10.307Z,0.70
2019-02-09T05:18:38.896Z,0.87
2019-02-09T05:21:07.450Z,1.10
2019-02-09T05:23:36.045Z,1.33
2019-02-09T05:26:04.644Z,1.30
2019-02-09T05:28:33.202Z,1.30
2019-02-09T05:31:02.000Z,1.70
2019-02-09T05:33:30.813Z,1.00
2019-02-09T05:35:59.373Z,1.47
2019-02-09T05:38:27.938Z,1.33
2019-02-09T05:40:56.529Z,1.80
2019-02-09T05:43:25.111Z,1.80
2019-02-09T05:45:53.691Z,1.60
2019-02-09T05:48:22.254Z,1.47
2019-02-09T05:50:50.842Z,1.40
2019-02-09T05:53:19.402Z,1.00
2019-02-09T05:55:47.960Z,1.53
2019-02-09T05:58:16.516Z,1.07
2019-02-09T06:00:45.630Z,1.07
2019-02-09T06:03:14.196Z,1.07
2019-02-09T06:05:42.766Z,1.40
2019-02-09T06:08:11.662Z,1.20
2019-02-09T06:10:40.326Z,1.33
2019-02-09T06:13:08.900Z,0.73
2019-02-09T06:15:37.530Z,1.73
2019-02-09T06:18:06.087Z,1.40
2019-02-09T06:20:34.755Z,1.47
2019-02-09T06:23:03.335Z,1.33
2019-02-09T06:25:32.000Z,0.93
2019-02-09T06:28:00.577Z,1.00
2019-02-09T06:30:29.910Z,0.70
2019-02-09T06:32:58.633Z,0.70
2019-02-09T06:35:27.365Z,1.10
2019-02-09T06:37:56.185Z,0.73
2019-02-09T06:40:25.169Z,1.07
2019-02-09T06:42:53.724Z,1.40
2019-02-09T06:45:22.737Z,1.30
2019-02-09T06:47:51.375Z,1.90
2019-02-09T06:50:25.889Z,1.73
2019-02-09T06:52:54.459Z,1.40
2019-02-09T06:55:23.045Z,1.80
2019-02-09T06:57:51.612Z,1.90
2019-02-09T07:00:20.934Z,1.67
2019-02-09T07:02:49.577Z,1.70
2019-02-09T07:05:18.826Z,1.67
2019-02-09T07:07:47.441Z,1.93
2019-02-09T07:10:18.544Z,1.93
2019-02-09T07:12:47.355Z,2.80
2019-02-09T07:15:18.879Z,1.30
2019-02-09T07:17:47.439Z,1.60
2019-02-09T07:20:16.160Z,1.73
2019-02-09T07:22:44.724Z,1.27
2019-02-09T07:25:13.555Z,1.40
2019-02-09T07:27:42.259Z,1.40
2019-02-09T07:30:14.135Z,1.10
2019-02-09T07:32:42.694Z,1.63
2019-02-09T07:35:12.125Z,1.33
2019-02-09T07:37:40.809Z,1.00
2019-02-09T07:40:10.403Z,1.00
2019-02-09T07:42:38.981Z,1.50
2019-02-09T07:45:09.364Z,1.10
2019-02-09T07:47:37.915Z,0.97
2019-02-09T07:50:07.057Z,1.20
2019-02-09T07:52:35.619Z,0.93
2019-02-09T07:55:05.120Z,0.90
2019-02-09T07:57:33.683Z,1.27
2019-02-09T08:00:02.572Z,1.50
2019-02-09T08:02:31.152Z,1.93
2019-02-09T08:04:59.971Z,1.80
2019-02-09T08:07:28.782Z,1.50
2019-02-09T08:09:57.444Z,1.53
2019-02-09T08:12:26.034Z,1.30
2019-02-09T08:14:54.702Z,2.00
2019-02-09T08:17:23.277Z,1.50
2019-02-09T08:19:52.062Z,1.33
2019-02-09T08:22:20.718Z,1.60
2019-02-09T08:24:49.274Z,1.40
2019-02-09T08:27:23.416Z,1.37
2019-02-09T08:29:48.218Z,2.23
2019-02-09T08:32:16.817Z,1.90
2019-02-09T08:34:45.454Z,1.57
2019-02-09T08:37:14.003Z,1.40
2019-02-09T08:39:42.556Z,1.30
2019-02-09T08:42:11.228Z,1.60
2019-02-09T08:44:39.811Z,1.40
2019-02-09T08:47:08.423Z,1.47
2019-02-09T08:49:37.000Z,1.60
2019-02-09T08:52:05.576Z,1.90
2019-02-09T08:54:34.162Z,2.20
2019-02-09T08:57:02.716Z,2.20
2019-02-09T08:59:31.666Z,1.93
2019-02-09T09:02:00.351Z,1.57
2019-02-09T09:04:28.920Z,1.37
2019-02-09T09:06:57.498Z,2.30
2019-02-09T09:09:26.341Z,1.70
2019-02-09T09:11:54.894Z,1.30
2019-02-09T09:14:23.734Z,1.60
2019-02-09T09:16:52.277Z,1.20
2019-02-09T09:19:20.832Z,1.97
2019-02-09T09:21:49.413Z,1.30
2019-02-09T09:24:17.995Z,1.33
2019-02-09T09:26:46.575Z,1.30
2019-02-09T09:29:15.144Z,1.50
2019-02-09T09:31:43.708Z,1.47
2019-02-09T09:34:12.423Z,1.60
2019-02-09T09:36:41.094Z,1.70
2019-02-09T09:39:10.307Z,1.37
2019-02-09T09:41:38.906Z,2.13
2019-02-09T09:44:07.547Z,2.30
2019-02-09T09:46:36.248Z,1.63
2019-02-09T09:49:04.881Z,1.60
2019-02-09T09:51:33.523Z,1.90
2019-02-09T09:54:02.320Z,1.80
2019-02-09T09:56:30.893Z,1.97
2019-02-09T09:58:59.444Z,1.43
2019-02-09T10:01:28.093Z,1.30
2019-02-09T10:03:56.659Z,1.43
2019-02-09T10:06:25.254Z,3.50
2019-02-09T10:08:53.903Z,1.77
2019-02-09T10:11:22.479Z,1.50
2019-02-09T10:13:51.038Z,1.40
2019-02-09T10:16:19.663Z,1.17
2019-02-09T10:18:48.222Z,1.53
2019-02-09T10:21:17.032Z,2.00
2019-02-09T10:23:45.591Z,1.80
2019-02-09T10:26:14.386Z,1.87
2019-02-09T10:28:42.958Z,2.33
2019-02-09T10:31:11.543Z,1.90
2019-02-09T10:33:40.109Z,1.90
2019-02-09T10:36:08.785Z,1.87
2019-02-09T10:38:37.356Z,1.50
2019-02-09T10:41:06.091Z,1.60
2019-02-09T10:43:34.759Z,2.13
2019-02-09T10:46:03.389Z,1.63
2019-02-09T10:48:31.952Z,1.50
2019-02-09T10:51:00.510Z,1.80
2019-02-09T10:53:29.297Z,2.00
2019-02-09T10:55:58.080Z,1.93
2019-02-09T10:58:26.701Z,1.23
2019-02-09T11:00:58.839Z,2.17
2019-02-09T11:03:27.429Z,1.87
2019-02-09T11:05:56.016Z,2.70
2019-02-09T11:08:24.785Z,2.00
2019-02-09T11:10:53.452Z,1.97
2019-02-09T11:13:22.007Z,1.80
2019-02-09T11:15:50.573Z,1.97
2019-02-09T11:18:19.156Z,2.87
2019-02-09T11:20:47.721Z,2.17
2019-02-09T11:23:16.303Z,1.90
2019-02-09T11:25:44.881Z,1.40
2019-02-09T11:28:13.525Z,2.00
2019-02-09T11:30:42.089Z,1.40
2019-02-09T11:33:10.691Z,2.60
2019-02-09T11:35:39.257Z,2.40
2019-02-09T11:38:07.894Z,1.90
2019-02-09T11:40:36.809Z,1.80
2019-02-09T11:43:06.148Z,1.63
2019-02-09T11:45:34.885Z,1.83
2019-02-09T11:48:03.684Z,2.00
2019-02-09T11:50:32.395Z,1.33
2019-02-09T11:53:01.082Z,2.37
2019-02-09T11:55:29.729Z,2.30
2019-02-09T11:57:58.321Z,1.37
2019-02-09T12:00:31.921Z,1.93
2019-02-09T12:03:05.367Z,1.73
2019-02-09T12:05:30.865Z,1.80
2019-02-09T12:07:59.516Z,2.67
2019-02-09T12:10:28.336Z,2.00
2019-02-09T12:12:56.911Z,1.60
2019-02-09T12:15:27.608Z,1.57
2019-02-09T12:17:56.302Z,1.60
2019-02-09T12:20:25.020Z,1.43
2019-02-09T12:22:53.701Z,1.37
2019-02-09T12:25:24.906Z,1.30
2019-02-09T12:27:53.534Z,2.20
2019-02-09T12:30:24.050Z,2.20
2019-02-09T12:32:52.692Z,1.90
2019-02-09T12:35:22.358Z,1.73
2019-02-09T12:37:51.014Z,1.70
2019-02-09T12:40:21.325Z,1.90
2019-02-09T12:42:50.279Z,1.90
2019-02-09T12:45:19.838Z,2.20
2019-02-09T12:47:48.621Z,1.77
2019-02-09T12:50:17.908Z,1.60
2019-02-09T12:52:46.494Z,2.30
2019-02-09T12:55:15.396Z,2.60
2019-02-09T12:57:44.013Z,2.03
2019-02-09T13:00:16.855Z,1.83
2019-02-09T13:02:45.670Z,2.20
2019-02-09T13:05:14.728Z,2.20
2019-02-09T13:07:43.678Z,2.27
2019-02-09T13:10:12.374Z,1.50
2019-02-09T13:12:41.156Z,2.40
2019-02-09T13:15:13.094Z,1.90
2019-02-09T13:17:41.978Z,2.53
2019-02-09T13:20:14.074Z,1.77
2019-02-09T13:22:42.814Z,1.50
2019-02-09T13:25:11.368Z,2.50
2019-02-09T13:27:40.172Z,1.77
2019-02-09T13:30:11.868Z,2.33
2019-02-09T13:32:40.430Z,2.03
2019-02-09T13:35:09.243Z,2.10
2019-02-09T13:37:37.830Z,2.30
2019-02-09T13:40:07.239Z,2.10
2019-02-09T13:42:35.805Z,1.83
2019-02-09T13:45:06.563Z,1.63
2019-02-09T13:47:35.482Z,2.10
2019-02-09T13:52:59.712Z,2.10
2019-02-09T13:58:16.013Z,1.70
2019-02-09T14:00:44.703Z,2.40
2019-02-09T14:03:20.540Z,2.20
2019-02-09T14:05:49.189Z,3.20
2019-02-09T14:08:18.313Z,1.90
2019-02-09T14:10:46.987Z,3.50
2019-02-09T14:13:15.883Z,2.50
2019-02-09T14:15:44.591Z,1.90
2019-02-09T14:18:13.284Z,2.47
2019-02-09T14:20:42.023Z,2.00
2019-02-09T14:23:10.686Z,2.10
2019-02-09T14:25:39.310Z,1.90
2019-02-09T14:28:08.465Z,2.17
2019-02-09T14:30:37.166Z,1.70
2019-02-09T14:33:08.007Z,1.90
2019-02-09T14:35:36.967Z,1.77
2019-02-09T14:38:05.677Z,1.73
2019-02-09T14:40:34.380Z,2.40
2019-02-09T14:43:03.036Z,2.37
2019-02-09T14:45:33.796Z,1.43
2019-02-09T14:48:02.372Z,2.37
2019-02-09T14:50:31.037Z,2.47
2019-02-09T14:52:59.698Z,2.00
2019-02-09T14:55:30.366Z,1.97
2019-02-09T14:57:59.094Z,2.20
2019-02-09T15:00:30.472Z,2.30
2019-02-09T15:02:59.199Z,1.97
2019-02-09T15:05:27.983Z,2.37
2019-02-09T15:07:56.586Z,2.00
2019-02-09T15:10:25.373Z,1.67
2019-02-09T15:12:54.075Z,2.03
2019-02-09T15:15:52.501Z,1.87
2019-02-09T15:18:21.405Z,1.87
2019-02-09T15:20:53.495Z,2.83
2019-02-09T15:23:22.102Z,1.90
2019-02-09T15:25:50.716Z,1.97
2019-02-09T15:28:19.682Z,1.90
2019-02-09T15:30:48.952Z,1.50
2019-02-09T15:33:18.148Z,2.20
2019-02-09T15:35:46.788Z,1.80
2019-02-09T15:38:15.414Z,2.30
2019-02-09T15:40:44.406Z,2.13
2019-02-09T15:43:13.411Z,1.77
2019-02-09T15:45:42.389Z,2.00
2019-02-09T15:48:11.031Z,1.50
2019-02-09T15:50:39.742Z,1.80
2019-02-09T15:53:08.407Z,1.73
2019-02-09T15:55:37.048Z,1.67
2019-02-09T15:58:05.724Z,1.60
2019-02-09T16:00:34.501Z,1.30
2019-02-09T16:03:03.190Z,1.20
2019-02-09T16:05:31.980Z,1.70
2019-02-09T16:08:01.030Z,1.50
2019-02-09T16:10:29.945Z,1.30
2019-02-09T16:12:58.721Z,1.40
2019-02-09T16:15:27.715Z,1.83
2019-02-09T16:17:56.447Z,1.73
2019-02-09T16:20:25.444Z,1.47
2019-02-09T16:22:54.547Z,1.70
2019-02-09T16:25:23.458Z,2.10
2019-02-09T16:27:52.137Z,2.27
2019-02-09T16:30:22.205Z,1.80
2019-02-09T16:32:50.895Z,3.17
2019-02-09T16:35:20.643Z,3.77
2019-02-09T16:37:49.424Z,2.20
2019-02-09T16:40:19.723Z,1.87
2019-02-09T16:42:48.421Z,4.30
2019-02-09T16:45:22.070Z,2.60
2019-02-09T16:47:50.969Z,2.10
2019-02-09T16:50:20.202Z,2.10
2019-02-09T16:52:48.901Z,2.10
2019-02-09T16:55:17.627Z,2.90
2019-02-09T16:57:46.277Z,2.17
2019-02-09T17:00:18.909Z,1.80
2019-02-09T17:02:47.644Z,1.40
2019-02-09T17:05:16.339Z,1.80
2019-02-09T17:07:45.006Z,2.43
2019-02-09T17:10:14.208Z,2.30
2019-02-09T17:12:42.850Z,2.57
2019-02-09T17:15:15.304Z,2.67
2019-02-09T17:17:43.934Z,1.63
2019-02-09T17:20:13.553Z,2.40
2019-02-09T17:22:42.154Z,1.97
2019-02-09T17:25:10.941Z,2.20
2019-02-09T17:27:39.594Z,2.70
2019-02-09T17:30:12.150Z,2.70
2019-02-09T17:32:40.766Z,2.53
2019-02-09T17:35:10.079Z,2.50
2019-02-09T17:37:38.671Z,2.30
2019-02-09T17:40:09.733Z,2.63
2019-02-09T17:42:38.388Z,1.97
2019-02-09T17:45:11.453Z,2.03
2019-02-09T17:47:40.376Z,1.87
2019-02-09T17:50:10.256Z,2.47
2019-02-09T17:52:38.942Z,2.40
2019-02-09T17:55:09.560Z,2.00
2019-02-09T17:57:38.243Z,2.07
2019-02-09T18:00:10.278Z,2.87
2019-02-09T18:02:39.153Z,2.13
2019-02-09T18:05:07.997Z,2.93
2019-02-09T18:07:37.118Z,2.57
2019-02-09T18:10:07.470Z,2.50
2019-02-09T18:12:36.092Z,2.20
2019-02-09T18:15:05.286Z,2.00
2019-02-09T18:17:33.867Z,3.53
2019-02-09T18:20:02.593Z,2.20
2019-02-09T18:22:31.502Z,2.30
2019-02-09T18:25:00.401Z,2.87
2019-02-09T18:27:29.239Z,2.50
2019-02-09T18:29:57.871Z,2.63
2019-02-09T18:32:26.749Z,2.70
2019-02-09T18:34:56.256Z,2.70
2019-02-09T18:37:24.961Z,2.63
2019-02-09T18:39:53.790Z,2.70
2019-02-09T18:42:22.399Z,1.73
2019-02-09T18:44:51.005Z,2.57
2019-02-09T18:47:19.670Z,2.10
2019-02-09T18:49:48.462Z,2.10
2019-02-09T18:52:17.358Z,2.80
2019-02-09T18:54:45.934Z,1.87
2019-02-09T18:57:14.538Z,1.70
2019-02-09T18:59:43.120Z,2.60
2019-02-09T19:02:11.804Z,2.43
2019-02-09T19:04:40.379Z,2.60
2019-02-09T19:07:09.294Z,3.40
2019-02-09T19:09:37.938Z,1.80
2019-02-09T19:12:06.663Z,1.70
2019-02-09T19:14:35.261Z,2.50
2019-02-09T19:17:04.281Z,2.17
2019-02-09T19:19:32.880Z,2.37
2019-02-09T19:22:01.471Z,1.90
2019-02-09T19:24:30.099Z,4.20
2019-02-09T19:26:58.785Z,2.47
2019-02-09T19:29:27.409Z,2.50
2019-02-09T19:31:55.998Z,2.10
2019-02-09T19:34:24.672Z,2.90
2019-02-09T19:36:53.507Z,2.20
2019-02-09T19:39:22.092Z,2.60
2019-02-09T19:41:50.736Z,3.03
2019-02-09T19:44:19.314Z,2.70
2019-02-09T19:46:47.998Z,3.20
2019-02-09T19:49:16.615Z,3.20
2019-02-09T19:51:45.220Z,3.03
2019-02-09T19:54:13.798Z,1.87
2019-02-09T19:56:43.151Z,2.40
2019-02-09T19:59:11.921Z,2.87
2019-02-09T20:01:40.793Z,2.70
2019-02-09T20:04:09.369Z,2.60
2019-02-09T20:06:38.258Z,2.03
2019-02-09T20:09:08.187Z,1.97
2019-02-09T20:11:36.873Z,4.37
2019-02-09T20:14:06.177Z,2.67
2019-02-09T20:16:34.806Z,2.00
2019-02-09T20:19:03.486Z,3.17
2019-02-09T20:21:32.110Z,3.10
2019-02-09T20:24:00.785Z,3.20
2019-02-09T20:26:29.400Z,2.70
2019-02-09T20:28:58.452Z,1.93
2019-02-09T20:31:27.063Z,3.03
2019-02-09T20:33:55.632Z,2.10
2019-02-09T20:36:24.536Z,2.43
2019-02-09T20:38:53.441Z,7.63
2019-02-09T20:41:22.283Z,3.20
2019-02-09T20:43:50.864Z,2.90
2019-02-09T20:46:19.471Z,1.83
2019-02-09T20:48:48.058Z,2.40
2019-02-09T20:51:16.702Z,2.43
2019-02-09T20:53:45.284Z,2.30
2019-02-09T20:56:13.904Z,2.37
2019-02-09T20:58:42.502Z,2.20
2019-02-09T21:01:11.182Z,2.73
2019-02-09T21:03:39.759Z,2.10
2019-02-09T21:06:08.431Z,3.07
2019-02-09T21:08:37.018Z,2.50
2019-02-09T21:11:06.188Z,2.60
2019-02-09T21:13:34.876Z,2.53
2019-02-09T21:16:03.513Z,2.30
2019-02-09T21:18:32.139Z,2.97
2019-02-09T21:21:00.768Z,2.50
2019-02-09T21:23:29.369Z,2.50
2019-02-09T21:25:58.383Z,2.20
2019-02-09T21:28:27.009Z,3.10
2019-02-09T21:30:55.591Z,2.83
2019-02-09T21:33:24.220Z,2.47
2019-02-09T21:35:53.075Z,3.50
2019-02-09T21:38:21.672Z,2.23
2019-02-09T21:40:50.270Z,2.40
2019-02-09T21:43:19.120Z,2.73
2019-02-09T21:45:47.731Z,2.43
2019-02-09T21:48:16.950Z,2.90
2019-02-09T21:50:45.562Z,2.93
2019-02-09T21:53:14.254Z,2.63
2019-02-09T21:55:42.946Z,2.43
2019-02-09T21:58:11.531Z,2.70
2019-02-09T22:00:41.799Z,3.20
2019-02-09T22:03:11.718Z,3.10
2019-02-09T22:05:40.552Z,2.23
2019-02-09T22:08:10.456Z,2.10
2019-02-09T22:10:39.431Z,3.30
2019-02-09T22:13:08.331Z,1.90
2019-02-09T22:15:38.642Z,3.07
2019-02-09T22:18:07.902Z,3.03
2019-02-09T22:20:36.536Z,2.27
2019-02-09T22:23:05.509Z,2.80
2019-02-09T22:25:34.269Z,2.50
2019-02-09T22:28:03.067Z,3.07
2019-02-09T22:30:32.904Z,2.60
2019-02-09T22:33:01.728Z,2.33
2019-02-09T22:35:30.532Z,2.53
2019-02-09T22:37:59.150Z,2.70
2019-02-09T22:40:29.769Z,2.93
2019-02-09T22:42:58.455Z,3.13
2019-02-09T22:45:27.356Z,3.30
2019-02-09T22:47:56.230Z,3.17
2019-02-09T22:50:27.144Z,3.70
2019-02-09T22:52:55.924Z,2.63
2019-02-09T22:55:24.699Z,2.57
2019-02-09T22:57:53.313Z,3.53
2019-02-09T23:00:59.051Z,2.90
2019-02-09T23:03:54.700Z,2.70
2019-02-09T23:06:43.209Z,5.17
2019-02-09T23:09:17.774Z,2.80
2019-02-09T23:11:46.358Z,3.47
2019-02-09T23:14:14.964Z,3.70
2019-02-09T23:16:43.864Z,2.87
2019-02-09T23:19:12.433Z,2.10
2019-02-09T23:21:41.016Z,2.87
2019-02-09T23:24:09.603Z,3.10
2019-02-09T23:26:38.424Z,2.97
2019-02-09T23:29:07.026Z,3.67
2019-02-09T23:31:35.611Z,3.47
2019-02-09T23:34:04.305Z,2.83
2019-02-09T23:36:33.120Z,2.70
2019-02-09T23:39:01.744Z,3.10
2019-02-09T23:41:30.414Z,2.67
2019-02-09T23:43:58.982Z,3.40
2019-02-09T23:46:27.571Z,2.63
2019-02-09T23:48:56.188Z,2.73
2019-02-09T23:51:24.743Z,3.60
2019-02-09T23:53:53.331Z,3.27
2019-02-09T23:56:21.925Z,2.40
2019-02-09T23:58:50.558Z,3.20
